sensor_id;sensor_type;location;lat;lon;timestamp;P1;P2;P0
67376;PMS7003;54261;46.086;6.588;2023-07-22T00:04:14;7.00;7.00;5.00
67376;PMS7003;54261;46.086;6.588;2023-07-22T00:09:16;6.67;5.33;5.00
67376;PMS7003;54261;46.086;6.588;2023-07-22T00:14:18;5.00;5.00;4.00
67376;PMS7003;54261;46.086;6.588;2023-07-22T00:19:20;6.67;6.67;5.00
67376;PMS7003;54261;46.086;6.588;2023-07-22T00:24:22;7.00;7.00;5.00
67376;PMS7003;54261;46.086;6.588;2023-07-22T00:29:25;5.33;5.33;5.00
67376;PMS7003;54261;46.086;6.588;2023-07-22T00:34:27;6.33;5.33;4.00
67376;PMS7003;54261;46.086;6.588;2023-07-22T00:39:29;6.00;5.00;4.33
67376;PMS7003;54261;46.086;6.588;2023-07-22T00:44:31;5.00;5.00;4.00
67376;PMS7003;54261;46.086;6.588;2023-07-22T00:49:34;8.00;6.00;4.67
67376;PMS7003;54261;46.086;6.588;2023-07-22T00:54:36;7.33;7.33;6.33
67376;PMS7003;54261;46.086;6.588;2023-07-22T00:59:39;9.00;8.00;5.33
67376;PMS7003;54261;46.086;6.588;2023-07-22T01:04:47;9.67;8.33;6.00
67376;PMS7003;54261;46.086;6.588;2023-07-22T01:09:55;6.67;5.33;3.67
67376;PMS7003;54261;46.086;6.588;2023-07-22T01:14:57;7.33;7.00;6.00
67376;PMS7003;54261;46.086;6.588;2023-07-22T01:20:00;5.67;5.67;4.67
67376;PMS7003;54261;46.086;6.588;2023-07-22T01:25:02;6.00;6.00;5.33
67376;PMS7003;54261;46.086;6.588;2023-07-22T01:30:04;7.33;6.33;4.33
67376;PMS7003;54261;46.086;6.588;2023-07-22T01:35:08;6.67;6.67;5.00
67376;PMS7003;54261;46.086;6.588;2023-07-22T01:40:11;7.00;6.00;5.00
67376;PMS7003;54261;46.086;6.588;2023-07-22T01:45:14;6.33;6.33;5.67
67376;PMS7003;54261;46.086;6.588;2023-07-22T01:50:16;6.33;6.33;5.33
67376;PMS7003;54261;46.086;6.588;2023-07-22T01:55:20;4.00;4.00;3.67
67376;PMS7003;54261;46.086;6.588;2023-07-22T02:00:22;5.67;5.67;4.00
67376;PMS7003;54261;46.086;6.588;2023-07-22T02:05:23;8.67;8.67;6.00
67376;PMS7003;54261;46.086;6.588;2023-07-22T02:10:25;6.67;6.67;5.00
67376;PMS7003;54261;46.086;6.588;2023-07-22T02:15:27;6.00;6.00;4.33
67376;PMS7003;54261;46.086;6.588;2023-07-22T02:20:29;6.33;6.33;5.33
67376;PMS7003;54261;46.086;6.588;2023-07-22T02:25:31;6.67;5.33;4.67
67376;PMS7003;54261;46.086;6.588;2023-07-22T02:30:34;7.67;6.67;5.00
67376;PMS7003;54261;46.086;6.588;2023-07-22T02:35:36;6.00;6.00;5.00
67376;PMS7003;54261;46.086;6.588;2023-07-22T02:40:38;6.67;6.67;4.67
67376;PMS7003;54261;46.086;6.588;2023-07-22T02:45:40;6.67;5.67;4.67
67376;PMS7003;54261;46.086;6.588;2023-07-22T02:50:42;7.67;7.33;5.67
67376;PMS7003;54261;46.086;6.588;2023-07-22T02:55:44;5.50;4.50;4.00
67376;PMS7003;54261;46.086;6.588;2023-07-22T03:00:47;6.33;6.33;4.67
67376;PMS7003;54261;46.086;6.588;2023-07-22T03:05:49;4.67;4.67;4.33
67376;PMS7003;54261;46.086;6.588;2023-07-22T03:10:51;7.33;7.33;6.00
67376;PMS7003;54261;46.086;6.588;2023-07-22T03:15:53;7.33;7.00;5.00
67376;PMS7003;54261;46.086;6.588;2023-07-22T03:20:55;8.67;7.67;6.00
67376;PMS7003;54261;46.086;6.588;2023-07-22T03:25:56;7.00;7.00;5.67
67376;PMS7003;54261;46.086;6.588;2023-07-22T03:30:58;5.33;5.33;4.67
67376;PMS7003;54261;46.086;6.588;2023-07-22T03:36:00;5.33;5.33;5.00
67376;PMS7003;54261;46.086;6.588;2023-07-22T03:41:02;8.33;7.67;5.67
67376;PMS7003;54261;46.086;6.588;2023-07-22T03:46:04;8.33;7.00;5.33
67376;PMS7003;54261;46.086;6.588;2023-07-22T03:51:06;7.33;7.33;6.00
67376;PMS7003;54261;46.086;6.588;2023-07-22T03:56:21;6.33;5.67;4.33
67376;PMS7003;54261;46.086;6.588;2023-07-22T04:01:25;8.67;8.33;6.33
67376;PMS7003;54261;46.086;6.588;2023-07-22T04:06:27;5.33;5.33;5.00
67376;PMS7003;54261;46.086;6.588;2023-07-22T04:11:30;5.33;5.00;4.00
67376;PMS7003;54261;46.086;6.588;2023-07-22T04:16:32;5.33;5.33;4.00
67376;PMS7003;54261;46.086;6.588;2023-07-22T04:21:34;6.00;6.00;4.67
67376;PMS7003;54261;46.086;6.588;2023-07-22T04:26:36;6.00;6.00;5.00
67376;PMS7003;54261;46.086;6.588;2023-07-22T04:31:38;6.00;6.00;5.00
67376;PMS7003;54261;46.086;6.588;2023-07-22T04:36:40;6.33;6.33;5.33
67376;PMS7003;54261;46.086;6.588;2023-07-22T04:41:42;8.33;8.33;6.33
67376;PMS7003;54261;46.086;6.588;2023-07-22T04:46:44;6.67;6.33;5.00
67376;PMS7003;54261;46.086;6.588;2023-07-22T04:51:47;7.00;7.00;6.00
67376;PMS7003;54261;46.086;6.588;2023-07-22T04:56:49;8.33;8.33;6.67
67376;PMS7003;54261;46.086;6.588;2023-07-22T05:01:51;7.33;7.33;6.00
67376;PMS7003;54261;46.086;6.588;2023-07-22T05:06:53;9.33;9.00;7.00
67376;PMS7003;54261;46.086;6.588;2023-07-22T05:11:55;7.67;7.67;7.33
67376;PMS7003;54261;46.086;6.588;2023-07-22T05:16:57;5.67;5.67;4.33
67376;PMS7003;54261;46.086;6.588;2023-07-22T05:21:59;8.00;8.00;6.00
67376;PMS7003;54261;46.086;6.588;2023-07-22T05:27:01;3.67;3.67;3.67
67376;PMS7003;54261;46.086;6.588;2023-07-22T05:32:09;6.00;6.00;4.33
67376;PMS7003;54261;46.086;6.588;2023-07-22T05:37:28;4.67;4.67;4.33
67376;PMS7003;54261;46.086;6.588;2023-07-22T05:42:29;7.67;6.67;5.33
67376;PMS7003;54261;46.086;6.588;2023-07-22T05:47:31;8.67;7.67;6.33
67376;PMS7003;54261;46.086;6.588;2023-07-22T05:52:33;6.00;5.67;4.67
67376;PMS7003;54261;46.086;6.588;2023-07-22T05:57:35;8.00;6.33;5.00
67376;PMS7003;54261;46.086;6.588;2023-07-22T06:02:37;8.67;8.67;7.00
67376;PMS7003;54261;46.086;6.588;2023-07-22T06:07:39;6.00;6.00;4.67
67376;PMS7003;54261;46.086;6.588;2023-07-22T06:12:41;6.33;5.67;5.00
67376;PMS7003;54261;46.086;6.588;2023-07-22T06:17:43;5.67;5.67;5.00
67376;PMS7003;54261;46.086;6.588;2023-07-22T06:22:45;6.00;5.00;4.67
67376;PMS7003;54261;46.086;6.588;2023-07-22T06:27:47;6.33;5.33;4.33
67376;PMS7003;54261;46.086;6.588;2023-07-22T06:32:49;6.00;6.00;5.00
67376;PMS7003;54261;46.086;6.588;2023-07-22T06:37:51;7.00;7.00;6.00
67376;PMS7003;54261;46.086;6.588;2023-07-22T06:42:53;6.00;6.00;5.00
67376;PMS7003;54261;46.086;6.588;2023-07-22T06:47:55;7.00;7.00;5.00
67376;PMS7003;54261;46.086;6.588;2023-07-22T06:52:56;8.67;7.67;6.00
67376;PMS7003;54261;46.086;6.588;2023-07-22T06:57:58;5.00;5.00;4.67
67376;PMS7003;54261;46.086;6.588;2023-07-22T07:03:01;5.67;5.67;5.00
67376;PMS7003;54261;46.086;6.588;2023-07-22T07:08:03;7.33;6.33;6.00
67376;PMS7003;54261;46.086;6.588;2023-07-22T07:13:05;6.67;6.67;5.33
67376;PMS7003;54261;46.086;6.588;2023-07-22T07:18:07;7.33;7.33;5.33
67376;PMS7003;54261;46.086;6.588;2023-07-22T07:23:09;7.67;7.67;6.33
67376;PMS7003;54261;46.086;6.588;2023-07-22T07:28:11;6.00;6.00;6.00
67376;PMS7003;54261;46.086;6.588;2023-07-22T07:33:14;5.33;5.33;4.67
67376;PMS7003;54261;46.086;6.588;2023-07-22T07:38:16;6.33;6.33;5.33
67376;PMS7003;54261;46.086;6.588;2023-07-22T07:43:19;6.00;6.00;4.67
67376;PMS7003;54261;46.086;6.588;2023-07-22T07:48:20;6.33;6.33;5.00
67376;PMS7003;54261;46.086;6.588;2023-07-22T07:53:22;8.33;8.00;7.00
67376;PMS7003;54261;46.086;6.588;2023-07-22T07:58:24;8.00;7.00;6.33
67376;PMS7003;54261;46.086;6.588;2023-07-22T08:03:26;9.33;9.33;7.00
67376;PMS7003;54261;46.086;6.588;2023-07-22T08:08:28;9.67;8.67;6.00
67376;PMS7003;54261;46.086;6.588;2023-07-22T08:13:31;6.00;6.00;5.67
67376;PMS7003;54261;46.086;6.588;2023-07-22T08:18:35;7.00;7.00;5.00
67376;PMS7003;54261;46.086;6.588;2023-07-22T08:23:38;5.33;5.33;4.67
67376;PMS7003;54261;46.086;6.588;2023-07-22T08:28:40;4.67;4.67;4.00
67376;PMS7003;54261;46.086;6.588;2023-07-22T08:33:42;7.00;6.00;5.00
67376;PMS7003;54261;46.086;6.588;2023-07-22T08:38:44;4.67;4.67;4.00
67376;PMS7003;54261;46.086;6.588;2023-07-22T08:43:46;7.00;7.00;5.00
67376;PMS7003;54261;46.086;6.588;2023-07-22T08:48:49;8.00;8.00;5.67
67376;PMS7003;54261;46.086;6.588;2023-07-22T08:53:58;6.00;6.00;4.33
67376;PMS7003;54261;46.086;6.588;2023-07-22T08:59:11;4.00;4.00;4.00
67376;PMS7003;54261;46.086;6.588;2023-07-22T09:04:15;4.00;4.00;2.33
67376;PMS7003;54261;46.086;6.588;2023-07-22T09:09:17;5.00;5.00;5.00
67376;PMS7003;54261;46.086;6.588;2023-07-22T09:14:20;5.33;4.67;3.33
67376;PMS7003;54261;46.086;6.588;2023-07-22T09:19:37;7.00;7.00;5.67
67376;PMS7003;54261;46.086;6.588;2023-07-22T09:24:39;5.00;5.00;4.33
67376;PMS7003;54261;46.086;6.588;2023-07-22T09:29:41;6.33;6.33;5.00
67376;PMS7003;54261;46.086;6.588;2023-07-22T09:35:04;6.00;5.00;4.00
67376;PMS7003;54261;46.086;6.588;2023-07-22T09:40:25;5.33;5.33;3.67
67376;PMS7003;54261;46.086;6.588;2023-07-22T09:45:28;7.00;7.00;5.33
67376;PMS7003;54261;46.086;6.588;2023-07-22T09:50:32;6.00;6.00;5.33
67376;PMS7003;54261;46.086;6.588;2023-07-22T09:55:34;6.00;6.00;4.00
67376;PMS7003;54261;46.086;6.588;2023-07-22T10:00:36;6.00;5.33;4.67
67376;PMS7003;54261;46.086;6.588;2023-07-22T10:05:41;5.00;4.00;3.67
67376;PMS7003;54261;46.086;6.588;2023-07-22T10:10:43;6.00;6.00;5.67
67376;PMS7003;54261;46.086;6.588;2023-07-22T10:15:46;18.33;15.33;12.00
67376;PMS7003;54261;46.086;6.588;2023-07-22T10:20:49;9.00;8.33;6.00
67376;PMS7003;54261;46.086;6.588;2023-07-22T10:25:53;6.33;5.67;4.00
67376;PMS7003;54261;46.086;6.588;2023-07-22T10:30:56;5.33;5.00;4.00
67376;PMS7003;54261;46.086;6.588;2023-07-22T10:36:06;5.00;4.67;3.67
67376;PMS7003;54261;46.086;6.588;2023-07-22T10:41:14;5.00;5.00;3.33
67376;PMS7003;54261;46.086;6.588;2023-07-22T10:46:36;4.67;4.67;3.33
67376;PMS7003;54261;46.086;6.588;2023-07-22T10:51:49;3.00;3.00;3.00
67376;PMS7003;54261;46.086;6.588;2023-07-22T10:56:53;5.00;5.00;4.00
67376;PMS7003;54261;46.086;6.588;2023-07-22T11:01:58;5.00;5.00;3.67
67376;PMS7003;54261;46.086;6.588;2023-07-22T11:07:02;2.67;2.67;2.00
67376;PMS7003;54261;46.086;6.588;2023-07-22T11:17:10;3.00;3.00;3.00
67376;PMS7003;54261;46.086;6.588;2023-07-22T11:22:12;3.00;3.00;3.00
67376;PMS7003;54261;46.086;6.588;2023-07-22T11:27:15;3.00;3.00;3.00
67376;PMS7003;54261;46.086;6.588;2023-07-22T11:32:17;3.67;2.33;2.33
67376;PMS7003;54261;46.086;6.588;2023-07-22T11:37:27;3.67;3.00;3.00
67376;PMS7003;54261;46.086;6.588;2023-07-22T11:42:29;3.00;3.00;2.67
67376;PMS7003;54261;46.086;6.588;2023-07-22T11:47:36;5.33;5.00;3.67
67376;PMS7003;54261;46.086;6.588;2023-07-22T11:52:38;4.00;4.00;4.00
67376;PMS7003;54261;46.086;6.588;2023-07-22T11:57:40;3.00;3.00;3.00
67376;PMS7003;54261;46.086;6.588;2023-07-22T12:02:43;4.00;4.00;4.00
67376;PMS7003;54261;46.086;6.588;2023-07-22T12:07:45;4.00;4.00;3.33
67376;PMS7003;54261;46.086;6.588;2023-07-22T12:12:47;4.67;3.33;3.00
67376;PMS7003;54261;46.086;6.588;2023-07-22T12:17:55;3.00;3.00;3.00
67376;PMS7003;54261;46.086;6.588;2023-07-22T12:23:03;2.67;2.67;2.00
67376;PMS7003;54261;46.086;6.588;2023-07-22T12:28:05;3.00;2.00;1.67
67376;PMS7003;54261;46.086;6.588;2023-07-22T12:33:08;4.00;4.00;3.00
67376;PMS7003;54261;46.086;6.588;2023-07-22T12:38:09;2.00;2.00;1.00
67376;PMS7003;54261;46.086;6.588;2023-07-22T12:43:11;1.67;1.67;1.00
67376;PMS7003;54261;46.086;6.588;2023-07-22T12:48:13;2.00;2.00;1.67
67376;PMS7003;54261;46.086;6.588;2023-07-22T12:53:17;1.33;1.33;1.33
67376;PMS7003;54261;46.086;6.588;2023-07-22T12:58:19;3.00;3.00;2.00
67376;PMS7003;54261;46.086;6.588;2023-07-22T13:03:21;1.67;1.67;1.67
67376;PMS7003;54261;46.086;6.588;2023-07-22T13:08:22;4.00;2.33;2.00
67376;PMS7003;54261;46.086;6.588;2023-07-22T13:13:24;1.00;1.00;1.00
67376;PMS7003;54261;46.086;6.588;2023-07-22T13:18:26;3.00;2.00;2.00
67376;PMS7003;54261;46.086;6.588;2023-07-22T13:23:29;2.67;2.67;1.67
67376;PMS7003;54261;46.086;6.588;2023-07-22T13:28:32;1.67;1.67;1.33
67376;PMS7003;54261;46.086;6.588;2023-07-22T13:33:34;1.00;1.00;1.00
67376;PMS7003;54261;46.086;6.588;2023-07-22T13:38:37;1.33;1.33;1.00
67376;PMS7003;54261;46.086;6.588;2023-07-22T13:44:03;0.67;0.67;0.67
67376;PMS7003;54261;46.086;6.588;2023-07-22T13:49:06;3.00;3.00;2.00
67376;PMS7003;54261;46.086;6.588;2023-07-22T13:54:08;1.33;1.33;1.00
67376;PMS7003;54261;46.086;6.588;2023-07-22T13:59:10;2.00;2.00;1.67
67376;PMS7003;54261;46.086;6.588;2023-07-22T14:04:13;1.67;1.67;1.33
67376;PMS7003;54261;46.086;6.588;2023-07-22T14:09:15;2.00;2.00;2.00
67376;PMS7003;54261;46.086;6.588;2023-07-22T14:14:17;3.00;3.00;2.00
67376;PMS7003;54261;46.086;6.588;2023-07-22T14:19:19;2.00;2.00;2.00
67376;PMS7003;54261;46.086;6.588;2023-07-22T14:24:23;2.33;2.33;1.33
67376;PMS7003;54261;46.086;6.588;2023-07-22T14:29:25;3.00;1.00;1.00
67376;PMS7003;54261;46.086;6.588;2023-07-22T14:34:27;4.00;3.00;2.00
67376;PMS7003;54261;46.086;6.588;2023-07-22T14:39:29;2.00;1.75;1.50
67376;PMS7003;54261;46.086;6.588;2023-07-22T14:44:30;1.50;1.25;1.25
67376;PMS7003;54261;46.086;6.588;2023-07-22T14:49:32;2.00;2.00;1.00
67376;PMS7003;54261;46.086;6.588;2023-07-22T14:54:34;3.50;2.25;1.50
67376;PMS7003;54261;46.086;6.588;2023-07-22T14:59:36;2.00;2.00;2.00
67376;PMS7003;54261;46.086;6.588;2023-07-22T15:04:38;2.50;2.50;2.25
67376;PMS7003;54261;46.086;6.588;2023-07-22T15:09:40;2.75;2.75;1.50
67376;PMS7003;54261;46.086;6.588;2023-07-22T15:14:43;1.25;1.25;1.25
67376;PMS7003;54261;46.086;6.588;2023-07-22T15:19:45;1.25;1.25;1.00
67376;PMS7003;54261;46.086;6.588;2023-07-22T15:24:47;2.25;2.25;1.50
67376;PMS7003;54261;46.086;6.588;2023-07-22T15:29:49;2.75;2.75;1.00
67376;PMS7003;54261;46.086;6.588;2023-07-22T15:34:51;3.00;2.75;2.00
67376;PMS7003;54261;46.086;6.588;2023-07-22T15:39:54;2.00;2.00;0.50
67376;PMS7003;54261;46.086;6.588;2023-07-22T15:44:55;1.25;1.25;1.00
67376;PMS7003;54261;46.086;6.588;2023-07-22T15:49:58;0.50;0.50;0.25
67376;PMS7003;54261;46.086;6.588;2023-07-22T15:54:59;0.50;0.50;0.00
67376;PMS7003;54261;46.086;6.588;2023-07-22T16:00:01;2.25;2.00;2.00
67376;PMS7003;54261;46.086;6.588;2023-07-22T16:05:05;1.25;1.25;0.25
67376;PMS7003;54261;46.086;6.588;2023-07-22T16:10:14;2.25;2.25;1.25
67376;PMS7003;54261;46.086;6.588;2023-07-22T16:15:16;1.00;1.00;1.00
67376;PMS7003;54261;46.086;6.588;2023-07-22T16:20:19;0.75;0.75;0.25
67376;PMS7003;54261;46.086;6.588;2023-07-22T16:25:22;0.25;0.25;0.25
67376;PMS7003;54261;46.086;6.588;2023-07-22T16:30:26;1.25;1.25;1.00
67376;PMS7003;54261;46.086;6.588;2023-07-22T16:35:28;1.25;1.25;0.50
67376;PMS7003;54261;46.086;6.588;2023-07-22T16:40:30;1.00;1.00;0.50
67376;PMS7003;54261;46.086;6.588;2023-07-22T16:45:32;2.25;1.25;0.25
67376;PMS7003;54261;46.086;6.588;2023-07-22T16:50:34;2.75;2.00;1.75
67376;PMS7003;54261;46.086;6.588;2023-07-22T16:55:36;1.00;1.00;0.50
67376;PMS7003;54261;46.086;6.588;2023-07-22T17:00:38;0.00;0.00;0.00
67376;PMS7003;54261;46.086;6.588;2023-07-22T17:05:40;0.75;0.75;0.50
67376;PMS7003;54261;46.086;6.588;2023-07-22T17:10:42;1.25;1.25;0.50
67376;PMS7003;54261;46.086;6.588;2023-07-22T17:15:43;1.50;1.50;1.00
67376;PMS7003;54261;46.086;6.588;2023-07-22T17:20:45;2.50;2.50;1.75
67376;PMS7003;54261;46.086;6.588;2023-07-22T17:25:47;1.00;1.00;1.00
67376;PMS7003;54261;46.086;6.588;2023-07-22T17:30:49;0.25;0.25;0.25
67376;PMS7003;54261;46.086;6.588;2023-07-22T17:35:52;1.50;1.00;1.00
67376;PMS7003;54261;46.086;6.588;2023-07-22T17:40:54;1.00;1.00;0.25
67376;PMS7003;54261;46.086;6.588;2023-07-22T17:45:56;1.75;1.25;1.00
67376;PMS7003;54261;46.086;6.588;2023-07-22T17:50:57;1.25;1.25;1.25
67376;PMS7003;54261;46.086;6.588;2023-07-22T17:56:00;3.25;3.25;2.25
67376;PMS7003;54261;46.086;6.588;2023-07-22T18:01:02;2.25;2.25;1.00
67376;PMS7003;54261;46.086;6.588;2023-07-22T18:06:04;2.33;2.33;2.33
67376;PMS7003;54261;46.086;6.588;2023-07-22T18:11:06;1.25;1.25;1.25
67376;PMS7003;54261;46.086;6.588;2023-07-22T18:16:08;1.75;1.75;1.00
67376;PMS7003;54261;46.086;6.588;2023-07-22T18:21:10;1.50;1.25;0.50
67376;PMS7003;54261;46.086;6.588;2023-07-22T18:26:12;2.25;2.25;1.50
67376;PMS7003;54261;46.086;6.588;2023-07-22T18:31:14;0.50;0.50;0.25
67376;PMS7003;54261;46.086;6.588;2023-07-22T18:36:16;1.00;1.00;1.00
67376;PMS7003;54261;46.086;6.588;2023-07-22T18:41:19;0.25;0.25;0.25
67376;PMS7003;54261;46.086;6.588;2023-07-22T18:46:22;0.75;0.25;0.25
67376;PMS7003;54261;46.086;6.588;2023-07-22T18:51:24;0.00;0.00;0.00
67376;PMS7003;54261;46.086;6.588;2023-07-22T18:56:26;2.00;2.00;1.67
67376;PMS7003;54261;46.086;6.588;2023-07-22T19:01:29;1.00;1.00;1.00
67376;PMS7003;54261;46.086;6.588;2023-07-22T19:06:31;2.00;2.00;1.67
67376;PMS7003;54261;46.086;6.588;2023-07-22T19:11:33;1.67;1.67;1.00
67376;PMS7003;54261;46.086;6.588;2023-07-22T19:16:34;1.00;1.00;1.00
67376;PMS7003;54261;46.086;6.588;2023-07-22T19:21:36;1.00;1.00;1.00
67376;PMS7003;54261;46.086;6.588;2023-07-22T19:26:38;1.33;1.33;0.67
67376;PMS7003;54261;46.086;6.588;2023-07-22T19:31:40;2.00;2.00;1.00
67376;PMS7003;54261;46.086;6.588;2023-07-22T19:36:42;2.00;2.00;1.00
67376;PMS7003;54261;46.086;6.588;2023-07-22T19:41:44;1.33;0.33;0.33
67376;PMS7003;54261;46.086;6.588;2023-07-22T19:46:46;2.00;2.00;1.00
67376;PMS7003;54261;46.086;6.588;2023-07-22T19:51:48;1.00;1.00;1.00
67376;PMS7003;54261;46.086;6.588;2023-07-22T19:57:00;2.00;2.00;1.00
67376;PMS7003;54261;46.086;6.588;2023-07-22T20:02:02;1.00;1.00;1.00
67376;PMS7003;54261;46.086;6.588;2023-07-22T20:07:05;1.00;1.00;1.00
67376;PMS7003;54261;46.086;6.588;2023-07-22T20:12:06;2.00;2.00;1.00
67376;PMS7003;54261;46.086;6.588;2023-07-22T20:17:09;2.00;2.00;1.00
67376;PMS7003;54261;46.086;6.588;2023-07-22T20:22:11;0.67;0.67;0.33
67376;PMS7003;54261;46.086;6.588;2023-07-22T20:27:13;2.00;2.00;1.00
67376;PMS7003;54261;46.086;6.588;2023-07-22T20:32:15;1.67;1.67;1.00
67376;PMS7003;54261;46.086;6.588;2023-07-22T20:37:29;2.00;2.00;2.00
67376;PMS7003;54261;46.086;6.588;2023-07-22T20:42:31;2.00;2.00;1.00
67376;PMS7003;54261;46.086;6.588;2023-07-22T20:47:33;2.00;2.00;2.00
67376;PMS7003;54261;46.086;6.588;2023-07-22T20:52:35;2.33;2.33;2.00
67376;PMS7003;54261;46.086;6.588;2023-07-22T20:57:37;1.00;1.00;1.00
67376;PMS7003;54261;46.086;6.588;2023-07-22T21:02:38;2.67;2.67;2.00
67376;PMS7003;54261;46.086;6.588;2023-07-22T21:07:40;2.67;2.67;2.00
67376;PMS7003;54261;46.086;6.588;2023-07-22T21:12:42;4.00;3.00;2.00
67376;PMS7003;54261;46.086;6.588;2023-07-22T21:17:44;4.00;3.00;2.00
67376;PMS7003;54261;46.086;6.588;2023-07-22T21:22:46;2.00;2.00;2.00
67376;PMS7003;54261;46.086;6.588;2023-07-22T21:27:48;2.00;2.00;1.67
67376;PMS7003;54261;46.086;6.588;2023-07-22T21:32:50;2.00;2.00;1.67
67376;PMS7003;54261;46.086;6.588;2023-07-22T21:37:52;4.00;2.00;2.00
67376;PMS7003;54261;46.086;6.588;2023-07-22T21:42:53;1.00;1.00;0.00
67376;PMS7003;54261;46.086;6.588;2023-07-22T21:47:55;1.33;1.33;1.00
67376;PMS7003;54261;46.086;6.588;2023-07-22T21:52:57;2.00;2.00;1.67
67376;PMS7003;54261;46.086;6.588;2023-07-22T21:58:00;2.67;2.67;2.00
67376;PMS7003;54261;46.086;6.588;2023-07-22T22:03:03;2.00;2.00;2.00
67376;PMS7003;54261;46.086;6.588;2023-07-22T22:08:05;3.33;3.33;1.33
67376;PMS7003;54261;46.086;6.588;2023-07-22T22:13:07;4.33;4.00;1.00
67376;PMS7003;54261;46.086;6.588;2023-07-22T22:18:09;3.00;3.00;3.00
67376;PMS7003;54261;46.086;6.588;2023-07-22T22:23:11;2.67;2.67;1.67
67376;PMS7003;54261;46.086;6.588;2023-07-22T22:28:14;2.67;2.67;2.00
67376;PMS7003;54261;46.086;6.588;2023-07-22T22:33:16;2.67;2.67;2.33
67376;PMS7003;54261;46.086;6.588;2023-07-22T22:38:18;3.00;3.00;2.00
67376;PMS7003;54261;46.086;6.588;2023-07-22T22:43:20;3.67;2.67;2.00
67376;PMS7003;54261;46.086;6.588;2023-07-22T22:48:22;3.33;3.33;2.33
67376;PMS7003;54261;46.086;6.588;2023-07-22T22:53:23;3.67;3.67;1.67
67376;PMS7003;54261;46.086;6.588;2023-07-22T22:58:25;3.00;3.00;3.00
67376;PMS7003;54261;46.086;6.588;2023-07-22T23:03:27;3.00;1.67;1.67
67376;PMS7003;54261;46.086;6.588;2023-07-22T23:08:29;3.00;3.00;3.00
67376;PMS7003;54261;46.086;6.588;2023-07-22T23:13:31;2.00;2.00;0.67
67376;PMS7003;54261;46.086;6.588;2023-07-22T23:18:33;2.00;2.00;2.00
67376;PMS7003;54261;46.086;6.588;2023-07-22T23:23:35;3.00;3.00;2.00
67376;PMS7003;54261;46.086;6.588;2023-07-22T23:28:38;4.00;4.00;3.00
67376;PMS7003;54261;46.086;6.588;2023-07-22T23:33:40;4.67;3.33;2.33
67376;PMS7003;54261;46.086;6.588;2023-07-22T23:38:41;3.00;3.00;2.00
67376;PMS7003;54261;46.086;6.588;2023-07-22T23:43:43;3.67;2.33;2.00
67376;PMS7003;54261;46.086;6.588;2023-07-22T23:48:45;3.67;3.00;2.00
67376;PMS7003;54261;46.086;6.588;2023-07-22T23:53:47;2.00;2.00;2.00
67376;PMS7003;54261;46.086;6.588;2023-07-22T23:58:49;2.67;2.67;2.33
